Accueil
METAR-TAF:

METAR-TAF

Aéroports :

Chambery / Aix-Les-Bains, France

Aéroport de Chambéry - Savoie

latitude: 45-39N, longitude: 005-53E, altitude: 235 m

Observation

Le bulletin a été fait il y a 20 minutes, à 21:30 UTC
Vent 1 kt de direction variable
Température 9°C
Humidité 66%
Pression 1019 hPa
Visibilité 10 km ou plus
pas de nuages en-dessous de 1500 mètres et pas de cumulonimbus.

METAR: LFLB 232130Z AUTO VRB01KT CAVOK 09/03 Q1019

Heure: 23:50 (21:50 UTC)

Prévision

Le bulletin a été fait il y a 10 heures et 50 minutes, à 11:00 UTC
Prévision valable du 23 à 12 UTC au 24 à 12 UTC
Vent 12 kt de nord
Visibilité 10 km ou plus
pas de nuages en-dessous de 1500 mètres et pas de cumulonimbus.
Evoluant progressivement
du 24 à 01 UTC au 24 à 05 UTC
Vent 2 kt de direction variable

TAF: LFLB 231100Z 2312/2412 36012KT CAVOK BECMG 2401/2405 VRB02KT

Observations et prévisions météorologiques de plus de 4000 aéroports (messages METAR et TAF).

Les stations disponibles sont représentées par des disques jaunes et rouges sur la carte.

Passer la souris dessus pour voir le nom de la station.

Cliquer dessus pour voir les observations et prévisions météorologiques.

Pour changer de carte: cliquez sur les boutons verts avec une croix noire pour zoomer, sur le bouton vert avec un tiret pour effectuer un zoom arrière, ou sur les flèches vertes pour les cartes adjacentes.


METAR-TAF: